Cape Girardeau Regional Airport
KCGI : now visible

Airfield :











YOU CAN JOIN US ON...

 
LOGIN :

Register | Disclaimer

   EN    FR    IT 

 









Legend :    VFR   Marginal VFR   IFR   Intensive IFR   Very Intensive IFR
Visi :
Ceiling :
>= 8 km
>= 3000ft
5 to 8 km
1000 to 3000 ft
1500m to 5 km
500 to 1000 ft
800 to 1500m
200 to 500 ft
< 800m
< 200 ft
Symbols :   Thunderstorms  Fog  Heavy snow  Heavy precipitations  Wind > 20 kt






- Airport Elevation : 342 ft
- IATA code : CGI


KCGI - Cape Girardeau Regional

CURRENT METAR :
  • 021753Z 09006KT 9SM CLR 28/17 A3009 RMK AO2 SLP187 6//// T02780167 10278 20200 58007 PNO

EXPIRED METARs :
  • 021653Z 04004KT 10SM CLR 27/17 A3011 RMK AO2 SLP191 T02670167 PNO
  • 021553Z 05006KT 10SM CLR 26/16 A3012 RMK AO2 SLP195 T02560161 PNO

TAF KCGI
Valid from the 02 at 18:00 until the 03 at 18:00 UTC


021739Z 0218/0318 04006KT P6SM FEW060
FM030100 02003KT P6SM SKC
TEMPO 0309/0312 5SM BR
FM031400 02006KT P6SM SKC
KZME FIR / North America



MET'MAP, your aeronautical weather chart ! - Copyright ORBIFLY December 2007 - Disclaimer

ORBIFLY MET'MAP TEAM :

Programming & Development : Alexandra Zaïnal
Concept & original design : Baudouin d'Aumeries
Assistance for programming : Marc-Olivier Méhu
Technical & hardware support : Manuel Goepfert

Contact : metmap@orbifly.com




SOURCES & CREDITS :

   NOAA       Earth
Advisory